sensor_id;sensor_type;location;lat;lon;timestamp;pressure;altitude;pressure_sealevel;temperature;humidity
68965;BME280;56017;48.680;8.998;2023-04-06T00:01:01;96930;;;0.6;76.5
68965;BME280;56017;48.680;8.998;2023-04-06T00:03:39;96930;;;0.6;76.5
68965;BME280;56017;48.680;8.998;2023-04-06T00:06:03;96930;;;0.6;76.5
68965;BME280;56017;48.680;8.998;2023-04-06T00:08:40;96920;;;0.6;76.5
68965;BME280;56017;48.680;8.998;2023-04-06T00:11:05;96930;;;0.6;76.5
68965;BME280;56017;48.680;8.998;2023-04-06T00:16:07;96930;;;0.6;76.5
68965;BME280;56017;48.680;8.998;2023-04-06T00:18:38;96920;;;0.6;76.5
68965;BME280;56017;48.680;8.998;2023-04-06T00:21:12;96920;;;0.6;76.5
68965;BME280;56017;48.680;8.998;2023-04-06T00:26:11;96910;;;0.6;76.5
68965;BME280;56017;48.680;8.998;2023-04-06T00:28:42;96920;;;0.6;76
68965;BME280;56017;48.680;8.998;2023-04-06T00:31:13;96910;;;0.7;76
68965;BME280;56017;48.680;8.998;2023-04-06T00:33:44;96910;;;0.7;76
68965;BME280;56017;48.680;8.998;2023-04-06T00:36:15;96910;;;0.7;75.5
68965;BME280;56017;48.680;8.998;2023-04-06T00:38:46;96910;;;0.6;76
68965;BME280;56017;48.680;8.998;2023-04-06T00:41:17;96910;;;0.5;76
68965;BME280;56017;48.680;8.998;2023-04-06T00:43:47;96910;;;0.4;76
68965;BME280;56017;48.680;8.998;2023-04-06T00:46:18;96910;;;0.4;76
68965;BME280;56017;48.680;8.998;2023-04-06T00:48:49;96910;;;0.4;76
68965;BME280;56017;48.680;8.998;2023-04-06T00:51:20;96900;;;0.3;76
68965;BME280;56017;48.680;8.998;2023-04-06T00:53:59;96900;;;0.3;76.5
68965;BME280;56017;48.680;8.998;2023-04-06T00:56:22;96900;;;0.4;76
68965;BME280;56017;48.680;8.998;2023-04-06T00:58:53;96900;;;0.4;76
68965;BME280;56017;48.680;8.998;2023-04-06T01:01:24;96900;;;0.3;76
68965;BME280;56017;48.680;8.998;2023-04-06T01:04:02;96900;;;0.2;76.5
68965;BME280;56017;48.680;8.998;2023-04-06T01:06:26;96900;;;0.3;76
68965;BME280;56017;48.680;8.998;2023-04-06T01:09:04;96900;;;0.2;76
68965;BME280;56017;48.680;8.998;2023-04-06T01:11:28;96900;;;0.2;76.5
68965;BME280;56017;48.680;8.998;2023-04-06T01:14:06;96900;;;0.2;76.5
68965;BME280;56017;48.680;8.998;2023-04-06T01:16:30;96890;;;0.2;76.5
68965;BME280;56017;48.680;8.998;2023-04-06T01:19:01;96890;;;0;76.5
68965;BME280;56017;48.680;8.998;2023-04-06T01:21:32;96890;;;0;76.5
68965;BME280;56017;48.680;8.998;2023-04-06T01:24:03;96890;;;0;76.5
68965;BME280;56017;48.680;8.998;2023-04-06T01:26:34;96890;;;0.1;76.5
68965;BME280;56017;48.680;8.998;2023-04-06T01:29:05;96890;;;0.2;76
68965;BME280;56017;48.680;8.998;2023-04-06T01:31:36;96880;;;0.2;76
68965;BME280;56017;48.680;8.998;2023-04-06T01:34:13;96880;;;0.2;76
68965;BME280;56017;48.680;8.998;2023-04-06T01:36:38;96880;;;0.2;76
68965;BME280;56017;48.680;8.998;2023-04-06T01:39:16;96870;;;0.1;76
68965;BME280;56017;48.680;8.998;2023-04-06T01:41:40;96870;;;0;76
68965;BME280;56017;48.680;8.998;2023-04-06T01:44:18;96880;;;-0.1;76.5
68965;BME280;56017;48.680;8.998;2023-04-06T01:46:42;96870;;;-0.1;76.5
68965;BME280;56017;48.680;8.998;2023-04-06T01:49:13;96870;;;-0.2;77
68965;BME280;56017;48.680;8.998;2023-04-06T01:51:44;96870;;;-0.1;76.5
68965;BME280;56017;48.680;8.998;2023-04-06T01:56:46;96870;;;-0.1;76.5
68965;BME280;56017;48.680;8.998;2023-04-06T01:59:23;96870;;;-0.2;76.5
68965;BME280;56017;48.680;8.998;2023-04-06T02:01:47;96870;;;-0.2;76.5
68965;BME280;56017;48.680;8.998;2023-04-06T02:04:25;96870;;;-0.2;76.5
68965;BME280;56017;48.680;8.998;2023-04-06T02:06:49;96870;;;-0.2;76.5
68965;BME280;56017;48.680;8.998;2023-04-06T02:09:28;96870;;;-0.1;76
68965;BME280;56017;48.680;8.998;2023-04-06T02:11:51;96870;;;0;76
68965;BME280;56017;48.680;8.998;2023-04-06T02:14:29;96860;;;-0.1;76
68965;BME280;56017;48.680;8.998;2023-04-06T02:16:53;96860;;;-0.2;76
68965;BME280;56017;48.680;8.998;2023-04-06T02:21:55;96870;;;-0.4;76.5
68965;BME280;56017;48.680;8.998;2023-04-06T02:24:36;96860;;;-0.4;76.5
68965;BME280;56017;48.680;8.998;2023-04-06T02:26:57;96870;;;-0.3;76.5
68965;BME280;56017;48.680;8.998;2023-04-06T02:29:28;96860;;;-0.2;76
68965;BME280;56017;48.680;8.998;2023-04-06T02:31:59;96860;;;-0.2;76
68965;BME280;56017;48.680;8.998;2023-04-06T02:34:37;96860;;;-0.2;76
68965;BME280;56017;48.680;8.998;2023-04-06T02:37:01;96860;;;-0.1;75.5
68965;BME280;56017;48.680;8.998;2023-04-06T02:39:39;96860;;;-0.1;75.5
68965;BME280;56017;48.680;8.998;2023-04-06T02:42:08;96860;;;-0.1;75.5
68965;BME280;56017;48.680;8.998;2023-04-06T02:44:41;96860;;;-0.1;75.5
68965;BME280;56017;48.680;8.998;2023-04-06T02:47:05;96860;;;-0.3;75.5
68965;BME280;56017;48.680;8.998;2023-04-06T02:49:42;96860;;;-0.4;75.5
68965;BME280;56017;48.680;8.998;2023-04-06T02:52:07;96860;;;-0.6;76
68965;BME280;56017;48.680;8.998;2023-04-06T02:57:08;96860;;;-0.5;76
68965;BME280;56017;48.680;8.998;2023-04-06T02:59:46;96860;;;-0.4;76
68965;BME280;56017;48.680;8.998;2023-04-06T03:02:10;96860;;;-0.3;76
68965;BME280;56017;48.680;8.998;2023-04-06T03:04:53;96850;;;-0.3;75.5
68965;BME280;56017;48.680;8.998;2023-04-06T03:07:12;96860;;;-0.5;76
68965;BME280;56017;48.680;8.998;2023-04-06T03:09:50;96860;;;-0.6;76
68965;BME280;56017;48.680;8.998;2023-04-06T03:12:14;96870;;;-0.6;76
68965;BME280;56017;48.680;8.998;2023-04-06T03:14:45;96860;;;-0.5;76
68965;BME280;56017;48.680;8.998;2023-04-06T03:17:16;96860;;;-0.5;75.5
68965;BME280;56017;48.680;8.998;2023-04-06T03:19:54;96860;;;-0.7;76
68965;BME280;56017;48.680;8.998;2023-04-06T03:22:19;96860;;;-0.7;76
68965;BME280;56017;48.680;8.998;2023-04-06T03:24:56;96860;;;-0.9;76
68965;BME280;56017;48.680;8.998;2023-04-06T03:27:20;96860;;;-0.9;76.5
68965;BME280;56017;48.680;8.998;2023-04-06T03:29:57;96860;;;-0.9;76.5
68965;BME280;56017;48.680;8.998;2023-04-06T03:32:22;96860;;;-0.7;76
68965;BME280;56017;48.680;8.998;2023-04-06T03:34:59;96860;;;-0.6;76
68965;BME280;56017;48.680;8.998;2023-04-06T03:37:24;96870;;;-0.6;75.5
68965;BME280;56017;48.680;8.998;2023-04-06T03:39:55;96870;;;-0.5;75.5
68965;BME280;56017;48.680;8.998;2023-04-06T03:42:32;96870;;;-0.5;75.5
68965;BME280;56017;48.680;8.998;2023-04-06T03:45:03;96870;;;-0.5;75.5
68965;BME280;56017;48.680;8.998;2023-04-06T03:47:28;96870;;;-0.6;75.5
68965;BME280;56017;48.680;8.998;2023-04-06T03:50:08;96870;;;-0.8;76
68965;BME280;56017;48.680;8.998;2023-04-06T03:52:29;96870;;;-1;76
68965;BME280;56017;48.680;8.998;2023-04-06T03:55:01;96880;;;-1.1;76.5
68965;BME280;56017;48.680;8.998;2023-04-06T03:57:31;96880;;;-1.1;76.5
68965;BME280;56017;48.680;8.998;2023-04-06T04:00:09;96880;;;-1.1;76.5
68965;BME280;56017;48.680;8.998;2023-04-06T04:02:34;96880;;;-1.1;76.5
68965;BME280;56017;48.680;8.998;2023-04-06T04:05:12;96880;;;-1;76.5
68965;BME280;56017;48.680;8.998;2023-04-06T04:07:35;96880;;;-1;76.5
68965;BME280;56017;48.680;8.998;2023-04-06T04:10:08;96880;;;-0.9;76.5
68965;BME280;56017;48.680;8.998;2023-04-06T04:12:37;96880;;;-0.9;76
68965;BME280;56017;48.680;8.998;2023-04-06T04:15:09;96880;;;-1;76
68965;BME280;56017;48.680;8.998;2023-04-06T04:17:39;96880;;;-1.1;76
68965;BME280;56017;48.680;8.998;2023-04-06T04:20:17;96880;;;-1.1;76
68965;BME280;56017;48.680;8.998;2023-04-06T04:22:41;96880;;;-1.2;76.5
68965;BME280;56017;48.680;8.998;2023-04-06T04:25:19;96890;;;-1.3;76.5
68965;BME280;56017;48.680;8.998;2023-04-06T04:27:43;96890;;;-1.2;76.5
68965;BME280;56017;48.680;8.998;2023-04-06T04:30:15;96890;;;-1.2;76.5
68965;BME280;56017;48.680;8.998;2023-04-06T04:32:45;96890;;;-1.1;76.5
68965;BME280;56017;48.680;8.998;2023-04-06T04:35:17;96890;;;-1.1;76.5
68965;BME280;56017;48.680;8.998;2023-04-06T04:37:47;96890;;;-1;76.5
68965;BME280;56017;48.680;8.998;2023-04-06T04:42:49;96890;;;-1;76
68965;BME280;56017;48.680;8.998;2023-04-06T04:45:26;96890;;;-1;76.5
68965;BME280;56017;48.680;8.998;2023-04-06T04:47:57;96890;;;-1;76.5
68965;BME280;56017;48.680;8.998;2023-04-06T04:50:22;96890;;;-1;76
68965;BME280;56017;48.680;8.998;2023-04-06T04:52:53;96890;;;-1;76
68965;BME280;56017;48.680;8.998;2023-04-06T04:55:24;96890;;;-1.1;76
68965;BME280;56017;48.680;8.998;2023-04-06T04:57:55;96900;;;-1;76
68965;BME280;56017;48.680;8.998;2023-04-06T05:00:26;96900;;;-1;76.5
68965;BME280;56017;48.680;8.998;2023-04-06T05:03:03;96900;;;-0.9;76
68965;BME280;56017;48.680;8.998;2023-04-06T05:05:28;96900;;;-1;76
68965;BME280;56017;48.680;8.998;2023-04-06T05:07:59;96900;;;-1.1;76
68965;BME280;56017;48.680;8.998;2023-04-06T05:10:36;96900;;;-1.2;76
68965;BME280;56017;48.680;8.998;2023-04-06T05:13:00;96900;;;-1.2;76.5
68965;BME280;56017;48.680;8.998;2023-04-06T05:15:38;96900;;;-1.3;76.5
68965;BME280;56017;48.680;8.998;2023-04-06T05:18:02;96900;;;-1.3;76.5
68965;BME280;56017;48.680;8.998;2023-04-06T05:20:34;96900;;;-1.2;76.5
68965;BME280;56017;48.680;8.998;2023-04-06T05:23:04;96910;;;-1;76.5
68965;BME280;56017;48.680;8.998;2023-04-06T05:25:42;96900;;;-0.8;76
68965;BME280;56017;48.680;8.998;2023-04-06T05:28:06;96900;;;-0.6;76
68965;BME280;56017;48.680;8.998;2023-04-06T05:30:44;96910;;;-0.4;75.5
68965;BME280;56017;48.680;8.998;2023-04-06T05:33:15;96910;;;-0.4;75.5
68965;BME280;56017;48.680;8.998;2023-04-06T05:35:46;96910;;;-0.4;75.5
68965;BME280;56017;48.680;8.998;2023-04-06T05:38:10;96910;;;-0.5;75.5
68965;BME280;56017;48.680;8.998;2023-04-06T05:40:41;96910;;;-0.5;76
68965;BME280;56017;48.680;8.998;2023-04-06T05:43:19;96920;;;-0.3;76
68965;BME280;56017;48.680;8.998;2023-04-06T05:45:44;96910;;;-0.3;76
68965;BME280;56017;48.680;8.998;2023-04-06T05:48:14;96910;;;-0.2;76
68965;BME280;56017;48.680;8.998;2023-04-06T05:50:49;96910;;;-0.1;76
68965;BME280;56017;48.680;8.998;2023-04-06T05:53:16;96920;;;0;76
68965;BME280;56017;48.680;8.998;2023-04-06T05:55:54;96910;;;0;76
68965;BME280;56017;48.680;8.998;2023-04-06T05:58:18;96920;;;0.1;76
68965;BME280;56017;48.680;8.998;2023-04-06T06:00:56;96920;;;0.3;76
68965;BME280;56017;48.680;8.998;2023-04-06T06:03:20;96920;;;0.5;75.5
68965;BME280;56017;48.680;8.998;2023-04-06T06:05:51;96920;;;0.6;75.5
68965;BME280;56017;48.680;8.998;2023-04-06T06:08:22;96920;;;0.7;75.5
68965;BME280;56017;48.680;8.998;2023-04-06T06:10:53;96920;;;0.8;75.5
68965;BME280;56017;48.680;8.998;2023-04-06T06:13:24;96920;;;0.9;75.5
68965;BME280;56017;48.680;8.998;2023-04-06T06:16:02;96920;;;1;75.5
68965;BME280;56017;48.680;8.998;2023-04-06T06:18:26;96920;;;1.2;75.5
68965;BME280;56017;48.680;8.998;2023-04-06T06:20:57;96920;;;1.3;75.5
68965;BME280;56017;48.680;8.998;2023-04-06T06:23:34;96920;;;1.4;75.5
68965;BME280;56017;48.680;8.998;2023-04-06T06:25:59;96920;;;1.5;75.5
68965;BME280;56017;48.680;8.998;2023-04-06T06:28:30;96920;;;1.5;75.5
68965;BME280;56017;48.680;8.998;2023-04-06T06:31:07;96910;;;1.6;75.5
68965;BME280;56017;48.680;8.998;2023-04-06T06:33:38;96910;;;1.7;75.5
68965;BME280;56017;48.680;8.998;2023-04-06T06:36:03;96910;;;1.9;75.5
68965;BME280;56017;48.680;8.998;2023-04-06T06:38:34;96920;;;2;76
68965;BME280;56017;48.680;8.998;2023-04-06T06:43:36;96920;;;2.2;76.5
68965;BME280;56017;48.680;8.998;2023-04-06T06:48:44;96920;;;2.3;76.5
68965;BME280;56017;48.680;8.998;2023-04-06T06:53:39;96920;;;2.8;76.5
68965;BME280;56017;48.680;8.998;2023-04-06T06:56:10;96920;;;3;76.5
68965;BME280;56017;48.680;8.998;2023-04-06T06:58:41;96920;;;3.3;76.5
68965;BME280;56017;48.680;8.998;2023-04-06T07:01:12;96920;;;3.5;76.5
68965;BME280;56017;48.680;8.998;2023-04-06T07:03:43;96920;;;3.7;76.5
68965;BME280;56017;48.680;8.998;2023-04-06T07:08:45;96920;;;4;76.5
68965;BME280;56017;48.680;8.998;2023-04-06T07:11:16;96920;;;4.1;76.5
68965;BME280;56017;48.680;8.998;2023-04-06T07:13:46;96920;;;4.3;76.5
68965;BME280;56017;48.680;8.998;2023-04-06T07:16:17;96920;;;4.4;76.5
68965;BME280;56017;48.680;8.998;2023-04-06T07:18:48;96920;;;4.5;76.5
68965;BME280;56017;48.680;8.998;2023-04-06T07:21:19;96920;;;4.6;76.5
68965;BME280;56017;48.680;8.998;2023-04-06T07:23:50;96920;;;4.7;76.5
68965;BME280;56017;48.680;8.998;2023-04-06T07:26:21;96920;;;4.9;76.5
68965;BME280;56017;48.680;8.998;2023-04-06T07:28:52;96920;;;4.9;76.5
68965;BME280;56017;48.680;8.998;2023-04-06T07:31:23;96920;;;5.1;76.5
68965;BME280;56017;48.680;8.998;2023-04-06T07:33:54;96920;;;5.2;76.5
68965;BME280;56017;48.680;8.998;2023-04-06T07:36:25;96920;;;5.4;76.5
68965;BME280;56017;48.680;8.998;2023-04-06T07:38:56;96920;;;5.5;76.5
68965;BME280;56017;48.680;8.998;2023-04-06T07:41:27;96920;;;5.6;76.5
68965;BME280;56017;48.680;8.998;2023-04-06T07:43:58;96920;;;5.7;76.5
68965;BME280;56017;48.680;8.998;2023-04-06T07:46:35;96920;;;5.9;76.5
68965;BME280;56017;48.680;8.998;2023-04-06T07:49:00;96920;;;6;76.5
68965;BME280;56017;48.680;8.998;2023-04-06T07:51:38;96920;;;6.1;76.5
68965;BME280;56017;48.680;8.998;2023-04-06T07:54:02;96920;;;6.2;76.5
68965;BME280;56017;48.680;8.998;2023-04-06T07:56:33;96910;;;6.3;76.5
68965;BME280;56017;48.680;8.998;2023-04-06T07:59:04;96910;;;6.4;76.5
68965;BME280;56017;48.680;8.998;2023-04-06T08:01:35;96910;;;6.6;76.5
68965;BME280;56017;48.680;8.998;2023-04-06T08:04:06;96910;;;6.6;76.5
68965;BME280;56017;48.680;8.998;2023-04-06T08:06:37;96910;;;6.7;76.5
68965;BME280;56017;48.680;8.998;2023-04-06T08:09:08;96910;;;6.8;76.5
68965;BME280;56017;48.680;8.998;2023-04-06T08:11:45;96920;;;6.9;76.5
68965;BME280;56017;48.680;8.998;2023-04-06T08:14:16;96910;;;7.1;77
68965;BME280;56017;48.680;8.998;2023-04-06T08:16:45;96910;;;7.2;77
68965;BME280;56017;48.680;8.998;2023-04-06T08:19:12;96910;;;7.3;76.5
68965;BME280;56017;48.680;8.998;2023-04-06T08:21:43;96910;;;7.4;76.5
68965;BME280;56017;48.680;8.998;2023-04-06T08:24:14;96910;;;7.4;77
68965;BME280;56017;48.680;8.998;2023-04-06T08:26:44;96910;;;7.5;77
68965;BME280;56017;48.680;8.998;2023-04-06T08:29:15;96900;;;7.6;77
68965;BME280;56017;48.680;8.998;2023-04-06T08:31:46;96910;;;7.7;76.5
68965;BME280;56017;48.680;8.998;2023-04-06T08:34:17;96910;;;7.8;76.5
68965;BME280;56017;48.680;8.998;2023-04-06T08:36:48;96900;;;7.9;76.5
68965;BME280;56017;48.680;8.998;2023-04-06T08:39:19;96900;;;8.1;76.5
68965;BME280;56017;48.680;8.998;2023-04-06T08:41:51;96900;;;8.2;76.5
68965;BME280;56017;48.680;8.998;2023-04-06T08:44:21;96900;;;8.3;76.5
68965;BME280;56017;48.680;8.998;2023-04-06T08:46:52;96900;;;8.4;76.5
68965;BME280;56017;48.680;8.998;2023-04-06T08:49:23;96900;;;8.4;76.5
68965;BME280;56017;48.680;8.998;2023-04-06T08:51:55;96900;;;8.5;76.5
68965;BME280;56017;48.680;8.998;2023-04-06T08:54:32;96900;;;8.6;76.5
68965;BME280;56017;48.680;8.998;2023-04-06T08:56:56;96890;;;8.7;76.5
68965;BME280;56017;48.680;8.998;2023-04-06T08:59:27;96880;;;8.8;76.5
68965;BME280;56017;48.680;8.998;2023-04-06T09:01:58;96880;;;9.1;76.5
68965;BME280;56017;48.680;8.998;2023-04-06T09:04:29;96880;;;9.1;76.5
68965;BME280;56017;48.680;8.998;2023-04-06T09:07:00;96880;;;9.3;76.5
68965;BME280;56017;48.680;8.998;2023-04-06T09:09:38;96880;;;9.4;76
68965;BME280;56017;48.680;8.998;2023-04-06T09:12:02;96880;;;9.3;76
68965;BME280;56017;48.680;8.998;2023-04-06T09:14:34;96880;;;9.4;76.5
68965;BME280;56017;48.680;8.998;2023-04-06T09:17:04;96880;;;9.5;76.5
68965;BME280;56017;48.680;8.998;2023-04-06T09:19:45;96880;;;9.5;77
68965;BME280;56017;48.680;8.998;2023-04-06T09:22:06;96880;;;9.7;77
68965;BME280;56017;48.680;8.998;2023-04-06T09:24:47;96880;;;9.9;76.5
68965;BME280;56017;48.680;8.998;2023-04-06T09:27:08;96880;;;10.1;76.5
68965;BME280;56017;48.680;8.998;2023-04-06T09:29:39;96880;;;10.4;76
68965;BME280;56017;48.680;8.998;2023-04-06T09:32:10;96880;;;10.6;76
68965;BME280;56017;48.680;8.998;2023-04-06T09:34:41;96880;;;10.6;76
68965;BME280;56017;48.680;8.998;2023-04-06T09:37:12;96880;;;10.7;76.5
68965;BME280;56017;48.680;8.998;2023-04-06T09:39:43;96880;;;11;76.5
68965;BME280;56017;48.680;8.998;2023-04-06T09:42:23;96880;;;11.1;76
68965;BME280;56017;48.680;8.998;2023-04-06T09:44:44;96880;;;11.3;75.5
68965;BME280;56017;48.680;8.998;2023-04-06T09:47:15;96880;;;11.4;76
68965;BME280;56017;48.680;8.998;2023-04-06T09:49:55;96880;;;11.6;76
68965;BME280;56017;48.680;8.998;2023-04-06T09:52:17;96870;;;12.4;78.5
68965;BME280;56017;48.680;8.998;2023-04-06T09:54:49;96870;;;13.7;79.5
68965;BME280;56017;48.680;8.998;2023-04-06T09:57:22;96870;;;15;77
68965;BME280;56017;48.680;8.998;2023-04-06T10:00:00;96870;;;15.9;75.5
68965;BME280;56017;48.680;8.998;2023-04-06T10:02:27;96860;;;16.6;72
68965;BME280;56017;48.680;8.998;2023-04-06T10:04:56;96860;;;16.4;73
68965;BME280;56017;48.680;8.998;2023-04-06T10:07:23;96860;;;16.8;74
68965;BME280;56017;48.680;8.998;2023-04-06T10:09:54;96850;;;17.2;73.5
68965;BME280;56017;48.680;8.998;2023-04-06T10:12:32;96850;;;17.6;72.5
68965;BME280;56017;48.680;8.998;2023-04-06T10:14:56;96850;;;18;71
68965;BME280;56017;48.680;8.998;2023-04-06T10:17:27;96840;;;18;71.5
68965;BME280;56017;48.680;8.998;2023-04-06T10:20:02;96840;;;17.7;71
68965;BME280;56017;48.680;8.998;2023-04-06T10:22:36;96840;;;17.5;70.5
68965;BME280;56017;48.680;8.998;2023-04-06T10:25:00;96840;;;17;70
68965;BME280;56017;48.680;8.998;2023-04-06T10:27:31;96850;;;16.4;69
68965;BME280;56017;48.680;8.998;2023-04-06T10:30:03;96850;;;15.9;68
68965;BME280;56017;48.680;8.998;2023-04-06T10:32:34;96850;;;15.3;69
68965;BME280;56017;48.680;8.998;2023-04-06T10:35:05;96850;;;14.6;70
68965;BME280;56017;48.680;8.998;2023-04-06T10:38:13;96850;;;14.3;71
68965;BME280;56017;48.680;8.998;2023-04-06T10:40:06;96850;;;14.2;71.5
68965;BME280;56017;48.680;8.998;2023-04-06T10:42:39;96850;;;14.2;71
68965;BME280;56017;48.680;8.998;2023-04-06T10:45:18;96840;;;14.3;72
68965;BME280;56017;48.680;8.998;2023-04-06T10:47:40;96850;;;14.5;71
68965;BME280;56017;48.680;8.998;2023-04-06T10:50:10;96840;;;14.2;71
68965;BME280;56017;48.680;8.998;2023-04-06T10:52:41;96840;;;14.1;71.5
68965;BME280;56017;48.680;8.998;2023-04-06T10:55:13;96830;;;13.9;72
68965;BME280;56017;48.680;8.998;2023-04-06T10:57:49;96830;;;13.8;72.5
68965;BME280;56017;48.680;8.998;2023-04-06T11:00:14;96840;;;13.9;74
68965;BME280;56017;48.680;8.998;2023-04-06T11:02:45;96840;;;14.4;72.5
68965;BME280;56017;48.680;8.998;2023-04-06T11:05:16;96840;;;14.2;74
68965;BME280;56017;48.680;8.998;2023-04-06T11:07:47;96830;;;14.2;74.5
68965;BME280;56017;48.680;8.998;2023-04-06T11:10:21;96830;;;14.6;75
68965;BME280;56017;48.680;8.998;2023-04-06T11:12:56;96830;;;15;73.5
68965;BME280;56017;48.680;8.998;2023-04-06T11:15:19;96830;;;15.2;73.5
68965;BME280;56017;48.680;8.998;2023-04-06T11:17:50;96820;;;15.3;73
68965;BME280;56017;48.680;8.998;2023-04-06T11:20:21;96830;;;15.1;72.5
68965;BME280;56017;48.680;8.998;2023-04-06T11:22:52;96810;;;14.6;73
68965;BME280;56017;48.680;8.998;2023-04-06T11:25:23;96820;;;14.3;74
68965;BME280;56017;48.680;8.998;2023-04-06T11:27:54;96810;;;14.2;74.5
68965;BME280;56017;48.680;8.998;2023-04-06T11:30:25;96810;;;14.3;74
68965;BME280;56017;48.680;8.998;2023-04-06T11:33:00;96810;;;14.5;74
68965;BME280;56017;48.680;8.998;2023-04-06T11:35:27;96810;;;14.6;73.5
68965;BME280;56017;48.680;8.998;2023-04-06T11:37:58;96810;;;14.6;73.5
68965;BME280;56017;48.680;8.998;2023-04-06T11:40:29;96800;;;15;73
68965;BME280;56017;48.680;8.998;2023-04-06T11:42:59;96800;;;15.4;72.5
68965;BME280;56017;48.680;8.998;2023-04-06T11:45:39;96800;;;15.8;72.5
68965;BME280;56017;48.680;8.998;2023-04-06T11:48:01;96800;;;15.7;73
68965;BME280;56017;48.680;8.998;2023-04-06T11:50:32;96790;;;15.9;73.5
68965;BME280;56017;48.680;8.998;2023-04-06T11:53:03;96790;;;16;72.5
68965;BME280;56017;48.680;8.998;2023-04-06T11:55:37;96790;;;15.9;73
68965;BME280;56017;48.680;8.998;2023-04-06T11:58:06;96780;;;15.7;73.5
68965;BME280;56017;48.680;8.998;2023-04-06T12:00:36;96790;;;15.6;73.5
68965;BME280;56017;48.680;8.998;2023-04-06T12:03:07;96780;;;15.6;74
68965;BME280;56017;48.680;8.998;2023-04-06T12:05:38;96780;;;15.6;74
68965;BME280;56017;48.680;8.998;2023-04-06T12:08:09;96770;;;15.9;74.5
68965;BME280;56017;48.680;8.998;2023-04-06T12:10:41;96770;;;16.5;74
68965;BME280;56017;48.680;8.998;2023-04-06T12:13:11;96770;;;16.8;73.5
68965;BME280;56017;48.680;8.998;2023-04-06T12:15:42;96770;;;16.7;73
68965;BME280;56017;48.680;8.998;2023-04-06T12:18:13;96770;;;16.6;73
68965;BME280;56017;48.680;8.998;2023-04-06T12:20:44;96770;;;16.5;72.5
68965;BME280;56017;48.680;8.998;2023-04-06T12:23:15;96770;;;16.3;73.5
68965;BME280;56017;48.680;8.998;2023-04-06T12:25:46;96770;;;16.3;74
68965;BME280;56017;48.680;8.998;2023-04-06T12:28:17;96760;;;16.6;73.5
68965;BME280;56017;48.680;8.998;2023-04-06T12:30:48;96760;;;16.6;73.5
68965;BME280;56017;48.680;8.998;2023-04-06T12:33:26;96760;;;16.6;73.5
68965;BME280;56017;48.680;8.998;2023-04-06T12:35:50;96760;;;16.7;73
68965;BME280;56017;48.680;8.998;2023-04-06T12:38:21;96760;;;17.3;73
68965;BME280;56017;48.680;8.998;2023-04-06T12:40:58;96750;;;17.5;72.5
68965;BME280;56017;48.680;8.998;2023-04-06T12:43:23;96750;;;17.6;72
68965;BME280;56017;48.680;8.998;2023-04-06T12:45:54;96750;;;18;73
68965;BME280;56017;48.680;8.998;2023-04-06T12:48:25;96750;;;18.7;74
68965;BME280;56017;48.680;8.998;2023-04-06T12:50:57;96750;;;19.4;72.5
68965;BME280;56017;48.680;8.998;2023-04-06T12:53:27;96740;;;19.1;71.5
68965;BME280;56017;48.680;8.998;2023-04-06T12:55:58;96740;;;18.4;71
68965;BME280;56017;48.680;8.998;2023-04-06T12:58:29;96740;;;17.7;72.5
68965;BME280;56017;48.680;8.998;2023-04-06T13:01:07;96740;;;17.7;73.5
68965;BME280;56017;48.680;8.998;2023-04-06T13:03:31;96740;;;17.9;74
68965;BME280;56017;48.680;8.998;2023-04-06T13:06:02;96740;;;18.4;73.5
68965;BME280;56017;48.680;8.998;2023-04-06T13:08:32;96740;;;18.9;73
68965;BME280;56017;48.680;8.998;2023-04-06T13:11:04;96740;;;19.5;72
68965;BME280;56017;48.680;8.998;2023-04-06T13:13:35;96730;;;19.7;70.5
68965;BME280;56017;48.680;8.998;2023-04-06T13:16:06;96730;;;18.8;72
68965;BME280;56017;48.680;8.998;2023-04-06T13:18:37;96730;;;18.1;73.5
68965;BME280;56017;48.680;8.998;2023-04-06T13:21:07;96730;;;17.8;73.5
68965;BME280;56017;48.680;8.998;2023-04-06T13:23:39;96730;;;17.4;73
68965;BME280;56017;48.680;8.998;2023-04-06T13:26:09;96730;;;17;73.5
68965;BME280;56017;48.680;8.998;2023-04-06T13:28:40;96730;;;16.6;74
68965;BME280;56017;48.680;8.998;2023-04-06T13:31:11;96730;;;16.5;74.5
68965;BME280;56017;48.680;8.998;2023-04-06T13:33:42;96720;;;17.2;74
68965;BME280;56017;48.680;8.998;2023-04-06T13:36:13;96710;;;18.2;72.5
68965;BME280;56017;48.680;8.998;2023-04-06T13:38:44;96720;;;18.8;71.5
68965;BME280;56017;48.680;8.998;2023-04-06T13:41:22;96720;;;19.1;70
68965;BME280;56017;48.680;8.998;2023-04-06T13:43:46;96720;;;18.6;70.5
68965;BME280;56017;48.680;8.998;2023-04-06T13:46:17;96710;;;19.3;71
68965;BME280;56017;48.680;8.998;2023-04-06T13:48:48;96710;;;19;72.5
68965;BME280;56017;48.680;8.998;2023-04-06T13:51:19;96710;;;19.1;73
68965;BME280;56017;48.680;8.998;2023-04-06T13:53:50;96700;;;19.6;72.5
68965;BME280;56017;48.680;8.998;2023-04-06T13:58:53;96700;;;19.5;73
68965;BME280;56017;48.680;8.998;2023-04-06T14:01:23;96700;;;19.9;72
68965;BME280;56017;48.680;8.998;2023-04-06T14:04:01;96700;;;19.9;69
68965;BME280;56017;48.680;8.998;2023-04-06T14:06:25;96700;;;19.1;70
68965;BME280;56017;48.680;8.998;2023-04-06T14:09:02;96700;;;19;71.5
68965;BME280;56017;48.680;8.998;2023-04-06T14:11:27;96700;;;19.3;73
68965;BME280;56017;48.680;8.998;2023-04-06T14:14:04;96700;;;19.6;72.5
68965;BME280;56017;48.680;8.998;2023-04-06T14:16:29;96700;;;19.2;73
68965;BME280;56017;48.680;8.998;2023-04-06T14:19:00;96700;;;19.1;72
68965;BME280;56017;48.680;8.998;2023-04-06T14:21:31;96700;;;18.8;72
68965;BME280;56017;48.680;8.998;2023-04-06T14:24:02;96690;;;18.8;72
68965;BME280;56017;48.680;8.998;2023-04-06T14:26:33;96690;;;18.7;71.5
68965;BME280;56017;48.680;8.998;2023-04-06T14:29:04;96700;;;18.2;72.5
68965;BME280;56017;48.680;8.998;2023-04-06T14:31:35;96700;;;17.9;73
68965;BME280;56017;48.680;8.998;2023-04-06T14:34:12;96700;;;17.9;72.5
68965;BME280;56017;48.680;8.998;2023-04-06T14:36:36;96700;;;17.7;71.5
68965;BME280;56017;48.680;8.998;2023-04-06T14:39:08;96700;;;17.2;72.5
68965;BME280;56017;48.680;8.998;2023-04-06T14:41:45;96700;;;16.7;74
68965;BME280;56017;48.680;8.998;2023-04-06T14:44:09;96700;;;16.4;74
68965;BME280;56017;48.680;8.998;2023-04-06T14:46:47;96700;;;16.1;74
68965;BME280;56017;48.680;8.998;2023-04-06T14:49:11;96700;;;16;74
68965;BME280;56017;48.680;8.998;2023-04-06T14:51:42;96700;;;15.9;74
68965;BME280;56017;48.680;8.998;2023-04-06T14:54:14;96700;;;15.7;74.5
68965;BME280;56017;48.680;8.998;2023-04-06T14:56:44;96700;;;15.5;74
68965;BME280;56017;48.680;8.998;2023-04-06T14:59:15;96700;;;15.2;74.5
68965;BME280;56017;48.680;8.998;2023-04-06T15:01:46;96700;;;15;75